Houlton, ME

2:15 PM EDT on July 30, 2015 (GMT -0400)
Littleton | | Change Station
CLOSE
Current Station
Personal Weather Station
Location: Littleton, ME
Elevation: 371 ft
Nearby Weather Stations

Elev 371 ft 46.20 °N, 67.81 °W | Updated 35 seconds ago

Mostly Cloudy
Mostly Cloudy
86.9 °F
Feels Like 90 °F
N
5.3
Wind Variable Wind from SSW

Today
High -- | Low -- °F
--% Chance of Precip.
Yesterday
High -- | Low -- °F
Precip. -- in
5:10 AM 8:04 PM
Waxing Gibbous, 99% visible
Pressure 29.78 in
Visibility 7.0 miles
Clouds Mostly Cloudy 8500 ft
Heat Index 90 °F
Dew Point 68 °F
Humidity 53%
Rainfall 0.00 in
Snow Depth Not available.
UV 5 out of 12
Pollen 4.20 out of 12
Air Quality Not available.
Flu Activity Not available.
METAR KHUL 301753Z AUTO 19009G14KT 7SM BKN085 29/18 A2978 RMK AO2 SLP084 T02890178 10289 20189 56020

More Conditions Fewer Conditions

Pressure 29.78 in
Visibility 7.0 miles
Clouds Mostly Cloudy 8500 ft
Heat Index 90 °F
Dew Point 68 °F
Humidity 53%
Rainfall 0.00 in
Snow Depth Not available.
UV 5 out of 12
Pollen 4.20 out of 12
Air Quality Not available.
Flu Activity Not available.
METAR KHUL 301753Z AUTO 19009G14KT 7SM BKN085 29/18 A2978 RMK AO2 SLP084 T02890178 10289 20189 56020

More Conditions Fewer Conditions

10-Day Weather Forecast

×

Almanac

Astronomy

Jul. 30, 2015 Rise Set
Actual Time
Civil Twilight
Nautical Twilight
Astronomical Twilight
Moon
Length of Visible Light
Length of Day
Tomorrow will be .
, % of the Moon is Illuminated

Today's Extremes

State Highs State Lows

Community

WunderPhotos

Upload Photos

1,842,449 photos uploaded!

WunderBlogs® & News

Nearby

Air Quality

  Air Quality AQ Index Pollutant
Not available.

Snow Depth

Station Depth Elevation

Earthquake Activity

City Distance Mag. Time & Date
Minimum magnitude displayed is 2.5.

Coastal Water Temperatures

Place Temperature

Stations

Nearby Weather Stations

Station Location Temp. Windchill Dew Point Humidity Wind Precip. Elev Updated Type